Time;durP1;ratioP1;P1;durP2;ratioP2;P2;SDS_P1;SDS_P2;PMS_P1;PMS_P2;Temp;Humidity;BMP_temperature;BMP_pressure;BME280_temperature;BME280_humidity;BME280_pressure;Samples;Min_cycle;Max_cycle;Signal;HPM_P1;HPM_P2
2022/08/27 00:02:01;;;;;;;3.67;2.10;;;17.50;99.90;;;;;;4938394;28;94596;-33
2022/08/27 00:04:26;;;;;;;2.97;1.70;;;17.50;99.90;;;;;;4938389;28;94529;-32
2022/08/27 00:06:52;;;;;;;5.78;2.15;;;17.50;99.90;;;;;;4938271;28;92120;-31
2022/08/27 00:09:18;;;;;;;3.78;1.70;;;17.50;99.90;;;;;;4938149;28;92195;-31
2022/08/27 00:11:45;;;;;;;2.70;1.95;;;17.40;99.90;;;;;;4938219;28;94685;-31
2022/08/27 00:14:11;;;;;;;2.88;2.15;;;17.40;99.90;;;;;;4938769;28;94446;-30
2022/08/27 00:16:37;;;;;;;2.17;1.92;;;17.40;99.90;;;;;;4939190;28;95090;-30
2022/08/27 00:19:02;;;;;;;3.50;1.90;;;17.30;99.90;;;;;;4937333;28;92966;-30
2022/08/27 00:21:28;;;;;;;1.90;1.80;;;17.30;99.90;;;;;;4938052;28;96025;-32
2022/08/27 00:23:53;;;;;;;3.35;2.17;;;17.30;99.90;;;;;;4937740;28;95604;-32
2022/08/27 00:26:19;;;;;;;2.47;1.85;;;17.30;99.90;;;;;;4938444;28;94480;-34
2022/08/27 00:28:46;;;;;;;3.83;1.80;;;17.30;99.90;;;;;;4937605;28;93435;-32
2022/08/27 00:31:13;;;;;;;3.30;2.00;;;17.20;99.90;;;;;;4974658;22;94726;-33
2022/08/27 00:33:39;;;;;;;2.13;1.88;;;17.20;99.90;;;;;;4937867;28;94473;-31
2022/08/27 00:36:06;;;;;;;3.45;1.73;;;17.20;99.90;;;;;;4938482;28;93412;-30
2022/08/27 00:38:32;;;;;;;3.15;2.15;;;17.10;99.90;;;;;;4938079;28;92137;-33
2022/08/27 00:40:59;;;;;;;2.55;2.17;;;17.10;99.90;;;;;;4938012;28;94421;-33
2022/08/27 00:43:31;;;;;;;3.90;2.10;;;17.00;99.90;;;;;;4937929;28;94670;-31
2022/08/27 00:46:11;;;;;;;3.70;2.33;;;17.00;99.90;;;;;;4937774;28;93112;-31
2022/08/27 00:48:37;;;;;;;4.75;1.92;;;17.00;99.90;;;;;;4937482;28;92814;-31
2022/08/27 00:51:04;;;;;;;2.33;1.55;;;17.00;99.90;;;;;;4938667;28;94657;-32
2022/08/27 00:53:32;;;;;;;5.80;2.77;;;17.00;99.90;;;;;;4937122;28;93491;-32
2022/08/27 00:56:17;;;;;;;7.68;2.70;;;17.00;99.90;;;;;;4937814;28;93943;-32
2022/08/27 00:58:46;;;;;;;2.42;1.90;;;16.90;99.90;;;;;;4937848;28;93059;-32
2022/08/27 01:01:15;;;;;;;5.10;1.70;;;16.90;99.90;;;;;;4936875;28;94785;-31
2022/08/27 01:03:45;;;;;;;4.30;2.15;;;16.90;99.90;;;;;;4938568;28;94020;-29
2022/08/27 01:06:13;;;;;;;6.60;2.28;;;16.90;99.90;;;;;;4938388;28;93240;-33
2022/08/27 01:08:44;;;;;;;5.80;2.55;;;16.80;99.90;;;;;;4936692;28;94434;-31
2022/08/27 01:11:10;;;;;;;2.80;2.60;;;16.80;99.90;;;;;;4937413;28;95139;-33
2022/08/27 01:13:36;;;;;;;5.07;2.33;;;16.70;99.90;;;;;;4937189;28;95575;-31
2022/08/27 01:16:03;;;;;;;4.88;2.38;;;16.70;99.90;;;;;;4937789;28;94628;-35
2022/08/27 01:18:31;;;;;;;4.25;2.92;;;16.70;99.90;;;;;;4937480;28;94687;-29
2022/08/27 01:21:16;;;;;;;3.50;2.10;;;16.60;99.90;;;;;;4937486;28;94716;-32
2022/08/27 01:24:08;;;;;;;3.47;2.15;;;16.60;99.90;;;;;;4936994;28;94207;-33
2022/08/27 01:26:34;;;;;;;7.15;2.67;;;16.50;99.90;;;;;;4921530;28;92598;-30
2022/08/27 01:28:59;;;;;;;7.15;2.22;;;16.50;99.90;;;;;;4937710;28;94132;-33
2022/08/27 01:31:26;;;;;;;2.72;2.08;;;16.50;99.90;;;;;;4937324;28;94633;-29
2022/08/27 01:34:00;;;;;;;2.75;1.98;;;16.50;99.90;;;;;;4936387;28;95041;-32
2022/08/27 01:36:26;;;;;;;3.53;2.70;;;16.40;99.90;;;;;;4937038;28;94253;-32
2022/08/27 01:38:52;;;;;;;3.95;2.65;;;16.40;99.90;;;;;;4937505;28;93622;-30
2022/08/27 01:41:19;;;;;;;3.75;2.45;;;16.40;99.90;;;;;;4936717;28;94526;-33
2022/08/27 01:43:45;;;;;;;2.13;1.92;;;16.40;99.90;;;;;;4937283;28;94930;-30
2022/08/27 01:46:10;;;;;;;5.03;2.85;;;16.30;99.90;;;;;;4937466;28;94406;-30
2022/08/27 01:48:36;;;;;;;2.43;1.73;;;16.30;99.90;;;;;;4936579;28;94784;-34
2022/08/27 01:51:02;;;;;;;8.65;3.58;;;16.20;99.90;;;;;;4937137;28;94639;-32
2022/08/27 01:53:28;;;;;;;4.53;2.28;;;16.20;99.90;;;;;;4936549;28;94506;-31
2022/08/27 01:55:54;;;;;;;7.47;2.55;;;16.20;99.90;;;;;;4938101;28;92606;-34
2022/08/27 01:58:23;;;;;;;4.82;2.63;;;16.10;99.90;;;;;;4936318;28;93487;-32
2022/08/27 02:00:53;;;;;;;4.00;2.67;;;16.10;99.90;;;;;;4936868;28;95732;-30
2022/08/27 02:03:19;;;;;;;2.88;2.53;;;16.10;99.90;;;;;;4935703;28;95501;-30
2022/08/27 02:05:46;;;;;;;3.35;1.90;;;16.00;99.90;;;;;;4934941;28;94716;-33
2022/08/27 02:08:17;;;;;;;3.17;2.87;;;16.00;99.90;;;;;;4936946;28;92957;-33
2022/08/27 02:10:44;;;;;;;2.75;2.25;;;16.00;99.90;;;;;;4937426;28;94777;-31
2022/08/27 02:13:12;;;;;;;4.28;2.22;;;16.00;99.90;;;;;;4936580;28;94520;-33
2022/08/27 02:15:39;;;;;;;11.40;2.50;;;16.10;99.90;;;;;;4936947;28;93140;-30
2022/08/27 02:18:06;;;;;;;3.47;2.17;;;16.00;99.90;;;;;;4936533;28;92376;-32
2022/08/27 02:20:33;;;;;;;2.30;1.80;;;16.10;99.90;;;;;;4939131;28;94579;-30
2022/08/27 02:22:59;;;;;;;2.03;1.73;;;16.10;99.90;;;;;;4939381;28;94047;-31
2022/08/27 02:25:27;;;;;;;4.43;2.47;;;16.10;99.90;;;;;;4939246;28;94332;-30
2022/08/27 02:27:53;;;;;;;;;;;16.10;99.90;;;;;;4939570;28;93084;-30
2022/08/27 02:30:22;;;;;;;4.22;2.55;;;16.10;99.90;;;;;;4940503;28;94424;-30
2022/08/27 02:32:51;;;;;;;4.22;1.83;;;16.10;99.90;;;;;;4939995;28;95549;-30
2022/08/27 02:35:18;;;;;;;3.72;2.17;;;16.00;99.90;;;;;;4940039;28;94364;-32
2022/08/27 02:37:44;;;;;;;4.97;2.83;;;16.00;99.90;;;;;;4939151;28;92965;-30
2022/08/27 02:40:12;;;;;;;6.03;3.15;;;16.00;99.90;;;;;;4940102;28;94942;-32
2022/08/27 02:42:38;;;;;;;2.78;1.77;;;16.00;99.90;;;;;;4940505;28;94489;-30
2022/08/27 02:45:06;;;;;;;3.88;2.00;;;15.90;99.90;;;;;;4939945;28;93055;-28
2022/08/27 02:47:34;;;;;;;2.55;2.35;;;15.90;99.90;;;;;;4938994;28;92673;-33
2022/08/27 02:49:59;;;;;;;3.50;2.22;;;15.90;99.90;;;;;;4939222;28;96077;-33
2022/08/27 02:52:26;;;;;;;4.88;2.03;;;15.80;99.90;;;;;;4939236;28;96423;-30
2022/08/27 02:54:52;;;;;;;3.25;2.00;;;15.80;99.90;;;;;;4939667;28;94570;-31
2022/08/27 02:57:18;;;;;;;3.10;1.55;;;15.70;99.90;;;;;;4940442;28;93450;-31
2022/08/27 02:59:44;;;;;;;1.98;1.77;;;15.70;99.90;;;;;;4939043;28;94867;-31
2022/08/27 03:02:09;;;;;;;4.00;1.92;;;15.70;99.90;;;;;;4939370;28;94219;-34
2022/08/27 03:04:35;;;;;;;6.07;2.42;;;15.60;99.90;;;;;;4939291;28;94400;-32
2022/08/27 03:07:00;;;;;;;2.97;1.73;;;15.60;99.90;;;;;;4940280;28;93994;-34
2022/08/27 03:09:26;;;;;;;3.45;2.47;;;15.60;99.90;;;;;;4938854;28;94834;-32
2022/08/27 03:11:52;;;;;;;11.57;2.58;;;15.60;99.90;;;;;;4938769;28;94542;-31
2022/08/27 03:14:18;;;;;;;2.05;1.90;;;15.60;99.90;;;;;;4939121;28;95518;-33
2022/08/27 03:16:43;;;;;;;3.13;2.15;;;15.60;99.90;;;;;;4938999;28;92549;-31
2022/08/27 03:19:10;;;;;;;4.85;2.30;;;15.50;99.90;;;;;;4939519;28;95604;-31
2022/08/27 03:21:36;;;;;;;4.13;1.83;;;15.50;99.90;;;;;;4939406;28;94461;-30
2022/08/27 03:24:03;;;;;;;4.55;2.45;;;15.50;99.90;;;;;;4938215;28;94369;-29
2022/08/27 03:26:30;;;;;;;5.22;2.47;;;15.40;99.90;;;;;;4939092;28;93435;-33
2022/08/27 03:28:56;;;;;;;7.10;1.90;;;15.40;99.90;;;;;;4939255;28;94546;-30
2022/08/27 03:31:26;;;;;;;3.58;2.13;;;15.40;99.90;;;;;;4938568;28;94386;-33
2022/08/27 03:33:57;;;;;;;5.43;2.45;;;15.40;99.90;;;;;;4938987;28;93144;-30
2022/08/27 03:36:25;;;;;;;4.63;2.88;;;15.40;99.90;;;;;;4938725;28;93503;-30
2022/08/27 03:38:51;;;;;;;3.42;2.20;;;15.40;99.90;;;;;;4937754;28;95838;-30
2022/08/27 03:41:18;;;;;;;8.43;2.33;;;15.30;99.90;;;;;;4938745;28;95415;-30
2022/08/27 03:43:44;;;;;;;4.25;2.10;;;15.30;99.90;;;;;;4939616;28;93332;-28
2022/08/27 03:46:10;;;;;;;4.10;2.13;;;15.40;99.90;;;;;;4938693;28;92574;-32
2022/08/27 03:48:36;;;;;;;3.40;1.98;;;15.30;99.90;;;;;;4938590;28;94961;-29
2022/08/27 03:51:12;;;;;;;8.52;2.35;;;15.30;99.90;;;;;;4938507;28;95412;-32
2022/08/27 03:53:40;;;;;;;4.55;2.30;;;15.40;99.90;;;;;;4938829;28;93173;-31
2022/08/27 03:56:07;;;;;;;3.72;2.20;;;15.30;99.90;;;;;;4939476;28;93919;-33
2022/08/27 03:58:34;;;;;;;7.35;3.08;;;15.30;99.90;;;;;;4938356;28;95329;-31
2022/08/27 04:01:00;;;;;;;2.08;1.63;;;15.30;99.90;;;;;;4938310;28;94285;-31
2022/08/27 04:03:26;;;;;;;3.25;2.08;;;15.20;99.90;;;;;;4937266;28;95265;-31
2022/08/27 04:05:56;;;;;;;3.15;2.38;;;15.20;99.90;;;;;;4938834;28;93403;-32
2022/08/27 04:08:23;;;;;;;4.95;2.17;;;15.20;99.90;;;;;;4938082;28;94668;-32
2022/08/27 04:10:49;;;;;;;3.47;2.33;;;15.20;99.90;;;;;;4938481;28;94662;-29
2022/08/27 04:13:16;;;;;;;4.07;1.95;;;15.20;99.90;;;;;;4937999;28;94478;-34
2022/08/27 04:15:43;;;;;;;3.28;2.85;;;15.10;99.90;;;;;;4938762;28;94470;-31
2022/08/27 04:18:11;;;;;;;4.67;2.87;;;15.10;99.90;;;;;;4938019;28;95536;-29
2022/08/27 04:20:37;;;;;;;3.78;1.98;;;15.10;99.90;;;;;;4938174;28;94621;-29
2022/08/27 04:23:03;;;;;;;5.65;1.80;;;15.10;99.90;;;;;;4939253;28;94778;-34
2022/08/27 04:25:29;;;;;;;5.15;2.00;;;15.10;99.90;;;;;;4938519;28;93464;-30
2022/08/27 04:27:55;;;;;;;9.65;2.55;;;15.10;99.90;;;;;;4936984;28;95600;-32
2022/08/27 04:30:21;;;;;;;3.22;2.22;;;15.10;99.90;;;;;;4937796;28;95275;-30
2022/08/27 04:32:46;;;;;;;5.13;2.58;;;15.00;99.90;;;;;;4937895;28;93453;-31
2022/08/27 04:35:12;;;;;;;2.40;2.00;;;15.10;99.90;;;;;;4938728;28;92145;-30
2022/08/27 04:37:39;;;;;;;3.05;2.40;;;15.00;99.90;;;;;;4938068;28;95560;-31
2022/08/27 04:40:05;;;;;;;2.15;2.05;;;15.00;99.90;;;;;;4937052;28;94722;-31
2022/08/27 04:42:31;;;;;;;5.88;2.35;;;15.00;99.90;;;;;;4937908;28;92656;-30
2022/08/27 04:44:56;;;;;;;2.22;2.00;;;15.00;99.90;;;;;;4937632;28;93805;-30
2022/08/27 04:47:22;;;;;;;3.33;2.15;;;15.00;99.90;;;;;;4937767;28;94861;-33
2022/08/27 04:49:48;;;;;;;3.60;2.47;;;15.00;99.90;;;;;;4938457;28;94497;-29
2022/08/27 04:52:14;;;;;;;3.60;2.28;;;15.00;99.90;;;;;;4937171;28;95218;-30
2022/08/27 04:54:40;;;;;;;4.78;2.58;;;14.90;99.90;;;;;;4937680;28;93413;-28
2022/08/27 04:57:07;;;;;;;3.78;1.83;;;14.90;99.90;;;;;;4937840;28;93709;-32
2022/08/27 04:59:33;;;;;;;3.20;2.13;;;14.90;99.90;;;;;;4937378;28;94283;-30
2022/08/27 05:02:00;;;;;;;3.28;1.77;;;14.90;99.90;;;;;;4938734;28;94431;-30
2022/08/27 05:04:26;;;;;;;5.30;2.63;;;14.80;99.90;;;;;;4936604;28;92503;-31
2022/08/27 05:06:51;;;;;;;3.55;2.22;;;14.80;99.90;;;;;;4936986;28;95164;-31
2022/08/27 05:09:18;;;;;;;2.67;2.47;;;14.80;99.90;;;;;;4937654;28;94652;-33
2022/08/27 05:11:44;;;;;;;3.33;2.38;;;14.80;99.90;;;;;;4937551;28;93022;-30
2022/08/27 05:14:12;;;;;;;5.13;2.50;;;14.70;99.90;;;;;;4937450;28;92848;-32
2022/08/27 05:16:38;;;;;;;4.63;2.20;;;14.70;99.90;;;;;;4934950;28;95394;-31
2022/08/27 05:19:10;;;;;;;2.35;2.15;;;14.70;99.90;;;;;;4937029;28;95820;-30
2022/08/27 05:21:38;;;;;;;5.70;3.30;;;14.70;99.90;;;;;;4938724;28;92199;-30
2022/08/27 05:24:06;;;;;;;3.03;2.50;;;14.70;99.90;;;;;;4937819;28;92765;-32
2022/08/27 05:26:33;;;;;;;5.78;3.08;;;14.70;99.90;;;;;;4936795;28;94623;-34
2022/08/27 05:28:59;;;;;;;3.65;2.55;;;14.70;99.90;;;;;;4936359;28;94580;-31
2022/08/27 05:31:26;;;;;;;5.30;3.33;;;14.80;99.90;;;;;;4937957;28;93765;-33
2022/08/27 05:33:54;;;;;;;1.92;1.83;;;14.80;99.90;;;;;;4937043;28;92707;-32
2022/08/27 05:36:21;;;;;;;;;;;14.80;99.90;;;;;;4937908;28;94831;-29
2022/08/27 05:38:49;;;;;;;2.75;1.92;;;14.80;99.90;;;;;;4937943;28;94286;-31
2022/08/27 05:41:17;;;;;;;2.23;2.03;;;14.80;99.90;;;;;;4936962;28;93353;-32
2022/08/27 05:43:44;;;;;;;7.03;2.63;;;14.80;99.90;;;;;;4937272;28;94327;-29
2022/08/27 05:46:15;;;;;;;3.17;2.60;;;14.80;99.90;;;;;;4936494;28;94840;-33
2022/08/27 05:48:42;;;;;;;4.20;2.15;;;14.90;99.90;;;;;;4937329;28;94381;-31
2022/08/27 05:51:29;;;;;;;2.67;2.35;;;14.90;99.90;;;;;;4937050;28;92127;-28
2022/08/27 05:54:13;;;;;;;5.47;1.90;;;15.00;99.90;;;;;;4936895;28;94330;-35
2022/08/27 05:56:40;;;;;;;5.32;2.50;;;15.10;99.90;;;;;;4940829;28;94876;-30
2022/08/27 06:01:53;;;;;;;3.22;2.13;;;15.20;99.90;;;;;;4929708;28;92868;-33
2022/08/27 06:04:20;;;;;;;9.02;2.47;;;15.30;99.90;;;;;;4940630;28;94618;-30
2022/08/27 06:06:48;;;;;;;3.45;1.95;;;15.40;99.90;;;;;;4939818;28;95864;-29
2022/08/27 06:09:19;;;;;;;4.88;2.65;;;15.50;99.90;;;;;;4939328;28;96024;-33
2022/08/27 06:11:45;;;;;;;5.40;2.45;;;15.60;99.90;;;;;;4941037;28;93940;-32
2022/08/27 06:14:11;;;;;;;7.65;3.50;;;15.70;99.90;;;;;;4939602;28;93576;-34
2022/08/27 06:16:38;;;;;;;4.28;2.92;;;15.80;99.90;;;;;;4940563;28;94329;-31
2022/08/27 06:19:04;;;;;;;5.03;2.00;;;15.80;99.90;;;;;;4940204;28;96048;-30
2022/08/27 06:21:30;;;;;;;3.22;2.58;;;15.90;99.90;;;;;;4935107;28;93152;-30
2022/08/27 06:23:55;;;;;;;4.47;2.53;;;16.00;99.90;;;;;;4926211;28;93769;-31
2022/08/27 06:26:23;;;;;;;2.85;1.63;;;16.10;99.90;;;;;;4920522;28;94908;-29
2022/08/27 06:28:49;;;;;;;4.35;2.85;;;16.20;99.90;;;;;;4936523;28;94203;-31
2022/08/27 06:31:21;;;;;;;2.85;1.90;;;16.30;99.90;;;;;;4938956;28;93179;-33
2022/08/27 06:33:47;;;;;;;9.85;3.65;;;16.40;99.90;;;;;;4939928;28;94137;-33
2022/08/27 06:36:15;;;;;;;5.50;2.40;;;16.50;99.90;;;;;;4939564;28;94678;-30
2022/08/27 06:38:42;;;;;;;2.38;2.17;;;16.60;99.90;;;;;;4939459;28;96088;-31
2022/08/27 06:41:09;;;;;;;6.13;2.85;;;16.60;99.90;;;;;;4939737;28;94122;-31
2022/08/27 06:43:37;;;;;;;6.65;3.90;;;16.70;99.90;;;;;;4939848;28;92541;-30
2022/08/27 06:46:04;;;;;;;3.20;2.67;;;16.80;99.90;;;;;;4939064;28;96226;-32
2022/08/27 06:48:30;;;;;;;7.82;2.83;;;16.80;99.90;;;;;;4938930;28;94701;-32
2022/08/27 06:50:56;;;;;;;5.97;2.83;;;16.90;99.90;;;;;;4939989;28;94304;-34
2022/08/27 06:53:22;;;;;;;6.40;2.22;;;17.00;99.90;;;;;;4939303;28;93777;-30
2022/08/27 06:55:48;;;;;;;3.08;2.20;;;17.10;99.90;;;;;;4937875;28;96888;-35
2022/08/27 06:58:15;;;;;;;6.75;2.65;;;17.20;99.90;;;;;;4938975;28;95494;-32
2022/08/27 07:00:42;;;;;;;3.60;2.20;;;17.30;99.90;;;;;;4940077;28;94579;-30
2022/08/27 07:03:09;;;;;;;2.87;2.33;;;17.30;99.90;;;;;;4939174;28;92873;-31
2022/08/27 07:05:38;;;;;;;2.47;1.50;;;17.40;99.90;;;;;;4937204;28;94482;-34
2022/08/27 07:08:05;;;;;;;2.78;2.17;;;17.50;99.90;;;;;;4938382;28;94859;-32
2022/08/27 07:10:31;;;;;;;5.00;2.50;;;17.70;99.90;;;;;;4939202;28;92464;-30
2022/08/27 07:12:58;;;;;;;4.10;2.50;;;17.90;99.90;;;;;;4939744;28;93604;-29
2022/08/27 07:15:24;;;;;;;8.70;3.15;;;18.10;99.90;;;;;;4938756;28;94886;-31
2022/08/27 07:17:49;;;;;;;3.53;2.13;;;18.30;99.90;;;;;;4938771;28;93836;-31
2022/08/27 07:20:16;;;;;;;3.17;2.25;;;18.60;99.90;;;;;;4937935;28;95774;-31
2022/08/27 07:22:44;;;;;;;2.85;2.20;;;18.70;99.90;;;;;;4939121;28;94589;-31
2022/08/27 07:25:12;;;;;;;7.47;2.00;;;19.00;99.90;;;;;;4939312;28;93389;-31
2022/08/27 07:27:38;;;;;;;;;;;19.20;99.90;;;;;;4932598;28;94666;-32
2022/08/27 07:30:06;;;;;;;3.28;1.90;;;19.30;99.90;;;;;;4930559;28;93223;-33
2022/08/27 07:32:32;;;;;;;1.45;1.15;;;19.40;99.90;;;;;;4936148;28;94854;-30
2022/08/27 07:34:59;;;;;;;4.78;2.60;;;19.60;99.90;;;;;;4936616;28;94793;-33
2022/08/27 07:37:24;;;;;;;3.05;2.10;;;19.80;99.90;;;;;;4936370;28;94448;-31
2022/08/27 07:39:50;;;;;;;4.60;1.88;;;20.00;99.90;;;;;;4928905;28;92482;-31
2022/08/27 07:44:59;;;;;;;4.70;2.35;;;20.20;99.90;;;;;;4936393;28;95825;-32
2022/08/27 07:47:25;;;;;;;4.55;1.73;;;20.30;99.90;;;;;;4936028;28;94353;-32
2022/08/27 07:49:51;;;;;;;2.45;2.08;;;20.50;99.90;;;;;;4936199;28;94497;-31
2022/08/27 07:52:17;;;;;;;5.20;2.47;;;20.60;99.90;;;;;;4936468;28;93272;-32
2022/08/27 07:54:42;;;;;;;6.30;2.78;;;20.80;99.90;;;;;;4935508;28;94798;-31
2022/08/27 07:57:09;;;;;;;4.88;2.50;;;20.90;99.90;;;;;;4936333;28;94546;-32
2022/08/27 07:59:35;;;;;;;4.57;2.05;;;20.80;99.90;;;;;;4936474;28;93773;-32
2022/08/27 08:02:01;;;;;;;5.15;2.75;;;20.70;99.90;;;;;;4937091;28;93170;-32
2022/08/27 08:04:26;;;;;;;1.75;1.65;;;20.60;99.90;;;;;;4923593;28;94271;-31
2022/08/27 08:06:53;;;;;;;5.13;2.33;;;20.40;99.90;;;;;;4924117;28;94807;-29
2022/08/27 08:09:21;;;;;;;1.48;1.20;;;20.40;99.90;;;;;;4935718;28;93742;-31
2022/08/27 08:11:46;;;;;;;5.07;2.90;;;20.30;99.90;;;;;;4936676;28;94707;-32
2022/08/27 08:14:12;;;;;;;4.32;2.10;;;20.10;99.90;;;;;;4935206;28;95134;-30
2022/08/27 08:16:38;;;;;;;4.18;2.08;;;20.10;99.90;;;;;;4936052;28;94736;-32
2022/08/27 08:19:04;;;;;;;2.97;2.38;;;20.10;99.90;;;;;;4936164;28;92812;-29
2022/08/27 08:21:30;;;;;;;2.72;1.98;;;20.00;99.90;;;;;;4936089;28;94210;-33
2022/08/27 08:23:55;;;;;;;7.90;3.08;;;19.90;99.90;;;;;;4935764;28;94319;-29
2022/08/27 08:26:22;;;;;;;6.15;3.15;;;19.80;99.90;;;;;;4936015;28;94153;-29
2022/08/27 08:28:48;;;;;;;7.40;2.53;;;19.70;99.90;;;;;;4936138;28;94505;-34
2022/08/27 08:31:13;;;;;;;5.50;2.80;;;19.70;99.90;;;;;;4935131;28;94902;-30
2022/08/27 08:33:39;;;;;;;2.22;1.98;;;19.70;99.90;;;;;;4934971;28;95719;-34
2022/08/27 08:36:11;;;;;;;8.13;2.75;;;19.80;99.90;;;;;;4935684;28;94981;-29
2022/08/27 08:38:38;;;;;;;5.05;2.13;;;19.80;99.90;;;;;;4936050;28;93724;-30
2022/08/27 08:41:06;;;;;;;8.88;2.75;;;19.80;99.90;;;;;;4935981;28;93374;-32
2022/08/27 08:43:34;;;;;;;;;;;19.90;99.90;;;;;;4935959;28;96184;-31
2022/08/27 08:46:21;;;;;;;8.52;2.55;;;19.80;99.90;;;;;;4935822;28;94058;-33
2022/08/27 08:48:49;;;;;;;4.85;2.53;;;19.80;99.90;;;;;;4935291;28;92833;-33
2022/08/27 08:51:33;;;;;;;6.95;2.83;;;19.60;99.90;;;;;;4935252;28;94601;-32
2022/08/27 08:54:09;;;;;;;5.82;2.50;;;19.60;99.90;;;;;;4935633;28;94808;-33
2022/08/27 08:57:05;;;;;;;5.50;2.65;;;19.60;99.90;;;;;;4935174;28;95423;-30
2022/08/27 08:59:42;;;;;;;4.13;2.10;;;19.50;99.90;;;;;;4933975;28;94258;-33
2022/08/27 09:02:13;;;;;;;6.37;2.40;;;19.50;99.90;;;;;;4935661;28;93897;-32
2022/08/27 09:04:40;;;;;;;6.00;2.17;;;19.60;99.90;;;;;;4935499;28;95957;-34
2022/08/27 09:07:14;;;;;;;4.88;2.88;;;19.70;99.90;;;;;;4935665;28;94661;-32
2022/08/27 09:09:57;;;;;;;7.38;3.40;;;19.80;99.90;;;;;;4934986;28;93389;-32
2022/08/27 09:12:29;;;;;;;4.13;2.85;;;20.00;99.90;;;;;;4934612;28;94653;-31
2022/08/27 09:15:06;;;;;;;4.95;1.88;;;20.10;99.90;;;;;;4935250;28;94674;-34
2022/08/27 09:17:33;;;;;;;2.97;2.10;;;20.00;99.90;;;;;;4935460;28;94300;-30
2022/08/27 09:19:59;;;;;;;3.25;2.42;;;19.90;99.90;;;;;;4935024;28;94139;-34
2022/08/27 09:22:43;;;;;;;2.65;1.95;;;19.90;99.90;;;;;;4934668;28;94156;-35
2022/08/27 09:25:31;;;;;;;3.65;1.90;;;19.90;99.90;;;;;;4934079;28;95804;-33
2022/08/27 09:29:14;;;;;;;3.80;1.77;;;19.90;99.90;;;;;;4934827;28;95153;-31
2022/08/27 09:30:54;;;;;;;9.75;1.83;;;20.00;99.90;;;;;;4939640;28;93464;-32
2022/08/27 09:33:20;;;;;;;6.35;2.58;;;20.20;99.90;;;;;;4941229;28;94751;-32
2022/08/27 09:35:46;;;;;;;7.93;1.92;;;20.30;99.90;;;;;;4941595;28;94840;-31
2022/08/27 09:38:34;;;;;;;3.65;1.60;;;20.40;99.90;;;;;;4935338;28;95910;-32
2022/08/27 09:41:06;;;;;;;2.53;1.67;;;20.40;99.90;;;;;;4928129;28;93277;-32
2022/08/27 09:43:32;;;;;;;4.50;2.05;;;20.40;99.90;;;;;;4941689;28;92775;-32
2022/08/27 09:46:06;;;;;;;9.05;2.08;;;20.50;99.90;;;;;;4940673;28;95207;-34
2022/08/27 09:48:34;;;;;;;4.55;1.95;;;20.80;99.90;;;;;;4939595;28;94349;-32
2022/08/27 09:51:07;;;;;;;5.32;2.05;;;21.20;99.90;;;;;;4940456;28;95718;-32
2022/08/27 09:53:44;;;;;;;4.10;1.77;;;21.30;99.90;;;;;;4940129;28;94621;-32
2022/08/27 09:56:29;;;;;;;5.32;2.03;;;21.20;99.90;;;;;;4940932;28;94741;-31
2022/08/27 09:59:03;;;;;;;6.72;2.42;;;21.10;99.90;;;;;;4939688;28;94124;-33
2022/08/27 10:01:33;;;;;;;5.80;2.67;;;20.90;99.90;;;;;;4938848;28;94141;-34
2022/08/27 10:04:08;;;;;;;5.53;2.10;;;20.70;99.90;;;;;;4940931;28;94397;-32
2022/08/27 10:06:34;;;;;;;6.22;2.08;;;20.60;99.90;;;;;;4940172;28;94669;-33
2022/08/27 10:09:13;;;;;;;3.55;2.30;;;20.50;99.90;;;;;;4941109;28;95044;-34
2022/08/27 10:11:48;;;;;;;3.13;1.23;;;20.50;99.90;;;;;;4940781;28;93307;-32
2022/08/27 10:14:20;;;;;;;2.97;1.77;;;20.40;99.90;;;;;;4940265;28;92728;-33
2022/08/27 10:17:10;;;;;;;4.78;2.15;;;20.40;99.90;;;;;;4940481;28;95708;-35
2022/08/27 10:19:51;;;;;;;11.15;2.78;;;20.40;99.90;;;;;;4940432;28;95261;-33
2022/08/27 10:22:36;;;;;;;3.55;1.92;;;20.50;99.90;;;;;;4939605;28;93358;-32
2022/08/27 10:25:20;;;;;;;6.63;2.25;;;20.60;99.90;;;;;;4940834;28;93908;-33
2022/08/27 10:28:05;;;;;;;11.88;2.70;;;20.80;99.90;;;;;;4939986;28;94783;-31
2022/08/27 10:31:08;;;;;;;8.85;2.15;;;21.00;99.90;;;;;;4939545;28;94591;-32
2022/08/27 10:33:54;;;;;;;6.25;2.38;;;21.00;99.90;;;;;;4939506;28;94477;-31
2022/08/27 10:36:36;;;;;;;3.28;1.83;;;21.00;99.90;;;;;;4918674;28;92734;-31
2022/08/27 10:39:19;;;;;;;2.85;2.20;;;21.00;99.90;;;;;;4940412;28;94625;-31
2022/08/27 10:41:59;;;;;;;3.20;2.08;;;21.00;99.90;;;;;;4938752;28;94961;-30
2022/08/27 10:44:43;;;;;;;13.43;2.55;;;21.00;99.90;;;;;;4936296;28;94472;-33
2022/08/27 10:47:52;;;;;;;4.90;1.63;;;21.10;99.90;;;;;;4937012;28;94521;-31
2022/08/27 10:50:33;;;;;;;3.90;2.08;;;21.10;99.90;;;;;;4937157;28;94745;-32
2022/08/27 10:53:10;;;;;;;3.80;2.28;;;21.20;99.90;;;;;;4936767;28;94677;-31
2022/08/27 10:55:50;;;;;;;7.43;2.17;;;21.30;99.90;;;;;;4937101;28;93561;-31
2022/08/27 10:58:38;;;;;;;5.65;1.92;;;21.40;99.90;;;;;;4936510;28;94652;-32
2022/08/27 11:01:18;;;;;;;6.60;1.90;;;21.20;99.90;;;;;;4936943;28;94510;-33
2022/08/27 11:04:17;;;;;;;3.33;1.70;;;21.10;99.90;;;;;;4936611;28;94364;-30
2022/08/27 11:06:50;;;;;;;2.28;1.58;;;21.10;99.90;;;;;;4937134;28;94445;-32
2022/08/27 11:09:21;;;;;;;5.63;2.00;;;21.20;99.90;;;;;;4936189;28;93439;-31
2022/08/27 11:11:55;;;;;;;3.00;1.65;;;21.20;99.90;;;;;;4935975;28;96494;-31
2022/08/27 11:14:28;;;;;;;3.33;1.67;;;21.30;99.90;;;;;;4935691;28;95450;-32
2022/08/27 11:17:00;;;;;;;5.75;1.88;;;21.40;99.90;;;;;;4935400;28;94035;-32
2022/08/27 11:19:52;;;;;;;3.65;1.55;;;21.50;99.90;;;;;;4936274;28;93038;-31
2022/08/27 11:22:34;;;;;;;3.63;1.55;;;21.60;99.90;;;;;;4935796;28;94891;-30
2022/08/27 11:25:14;;;;;;;6.45;1.83;;;21.60;99.90;;;;;;4936523;28;95881;-31
2022/08/27 11:27:41;;;;;;;3.85;1.85;;;21.70;99.90;;;;;;4937243;28;92910;-31
2022/08/27 11:30:28;;;;;;;3.70;2.05;;;21.90;99.90;;;;;;4936169;28;93546;-34
2022/08/27 11:32:57;;;;;;;3.65;2.00;;;22.10;99.90;;;;;;4935967;28;95318;-31
2022/08/27 11:35:43;;;;;;;3.47;1.48;;;22.20;99.90;;;;;;4934954;28;94972;-30
2022/08/27 11:38:18;;;;;;;6.88;2.58;;;22.20;99.90;;;;;;4914014;28;95647;-35
2022/08/27 11:40:55;;;;;;;2.50;1.80;;;22.00;99.90;;;;;;4936654;28;94332;-32
2022/08/27 11:43:24;;;;;;;4.00;2.23;;;21.80;99.90;;;;;;4934970;28;94769;-34
2022/08/27 11:46:02;;;;;;;2.88;1.45;;;21.80;99.90;;;;;;4935980;28;94911;-32
2022/08/27 11:48:32;;;;;;;7.40;1.40;;;21.90;99.90;;;;;;4935949;28;94227;-32
2022/08/27 11:51:08;;;;;;;12.07;2.10;;;22.10;99.90;;;;;;4935363;28;92498;-33
2022/08/27 11:53:54;;;;;;;2.17;1.45;;;22.10;99.90;;;;;;4935490;28;95364;-31
2022/08/27 11:56:37;;;;;;;6.63;2.05;;;22.00;99.90;;;;;;4935925;28;95358;-32
2022/08/27 11:59:11;;;;;;;6.05;1.60;;;21.90;99.90;;;;;;4936253;28;93002;-34
2022/08/27 12:01:39;;;;;;;6.22;1.73;;;21.80;99.90;;;;;;4936243;28;94738;-31
2022/08/27 12:04:29;;;;;;;4.47;1.67;;;21.70;99.90;;;;;;4921116;28;95638;-32
2022/08/27 12:07:04;;;;;;;2.60;1.50;;;21.80;99.90;;;;;;4936066;28;97231;-32
2022/08/27 12:09:46;;;;;;;4.13;1.83;;;21.80;99.90;;;;;;4935200;28;92958;-34
2022/08/27 12:12:20;;;;;;;4.80;1.92;;;21.80;99.90;;;;;;4935731;28;92210;-33
2022/08/27 12:15:03;;;;;;;3.08;1.52;;;21.90;99.90;;;;;;4935090;28;94620;-34
2022/08/27 12:17:52;;;;;;;5.05;1.50;;;22.20;99.90;;;;;;4923053;28;95418;-33
2022/08/27 12:20:44;;;;;;;5.53;1.60;;;22.50;99.90;;;;;;4935425;28;94410;-34
2022/08/27 12:23:41;;;;;;;8.18;2.33;;;22.40;99.90;;;;;;4935261;28;92801;-31
2022/08/27 12:26:15;;;;;;;3.28;2.05;;;22.60;99.90;;;;;;4935154;28;94638;-33
2022/08/27 12:28:41;;;;;;;10.48;2.10;;;22.70;99.90;;;;;;4932070;28;94664;-32
2022/08/27 12:31:07;;;;;;;2.85;1.23;;;22.70;99.90;;;;;;4974566;22;94747;-34
2022/08/27 12:33:40;;;;;;;7.75;2.05;;;22.60;99.90;;;;;;4935282;28;94743;-31
2022/08/27 12:36:24;;;;;;;3.05;1.42;;;22.50;99.90;;;;;;4935224;28;94756;-30
2022/08/27 12:38:53;;;;;;;3.80;1.70;;;22.60;99.90;;;;;;4935166;28;94975;-31
2022/08/27 12:41:38;;;;;;;4.30;1.45;;;22.50;99.90;;;;;;4934956;28;93497;-32
2022/08/27 12:44:10;;;;;;;3.28;1.83;;;22.30;99.90;;;;;;4935505;28;92832;-34
2022/08/27 12:46:46;;;;;;;5.13;1.85;;;22.30;99.90;;;;;;4934050;28;95358;-33
2022/08/27 12:49:16;;;;;;;7.38;2.00;;;22.50;99.90;;;;;;4934511;28;95305;-35
2022/08/27 12:51:44;;;;;;;6.38;1.27;;;22.80;99.90;;;;;;4930297;28;94090;-34
2022/08/27 12:54:09;;;;;;;6.00;2.23;;;23.00;99.90;;;;;;4935598;28;93553;-32
2022/08/27 12:56:37;;;;;;;2.70;1.73;;;23.10;99.90;;;;;;4934010;28;96040;-32
2022/08/27 12:59:22;;;;;;;6.78;2.10;;;23.00;99.90;;;;;;4934373;28;95851;-33
2022/08/27 13:01:56;;;;;;;4.35;1.88;;;22.70;99.90;;;;;;4935384;28;93367;-33
2022/08/27 13:04:29;;;;;;;5.47;1.70;;;22.50;99.90;;;;;;4933798;28;92525;-31
2022/08/27 13:06:54;;;;;;;4.93;1.88;;;22.30;99.90;;;;;;4934863;28;94872;-34
2022/08/27 13:09:33;;;;;;;4.88;1.95;;;22.10;99.90;;;;;;4933962;28;94673;-35
2022/08/27 13:12:00;;;;;;;4.45;2.22;;;22.00;99.90;;;;;;4934883;28;92192;-33